Time;durP1;ratioP1;P1;durP2;ratioP2;P2;SDS_P1;SDS_P2;PMS_P1;PMS_P2;Temp;Humidity;BMP_temperature;BMP_pressure;BME280_temperature;BME280_humidity;BME280_pressure;Samples;Min_cycle;Max_cycle;Signal;HPM_P1;HPM_P2
2022/04/11 00:01:51;;;;;;;13.93;9.70;;;;;;;4.81;72.00;101883.75;5042130;28;20488;-60
2022/04/11 00:04:17;;;;;;;16.00;10.73;;;;;;;4.78;71.87;101872.38;5041772;28;20032;-60
2022/04/11 00:06:42;;;;;;;14.00;11.45;;;;;;;4.79;71.36;101876.78;5040975;28;20025;-60
2022/04/11 00:09:07;;;;;;;16.95;11.90;;;;;;;4.79;72.14;101874.06;5042873;28;20555;-60
2022/04/11 00:11:33;;;;;;;15.05;11.88;;;;;;;4.77;71.57;101866.09;5044107;28;20154;-60
2022/04/11 00:13:58;;;;;;;13.48;11.30;;;;;;;4.76;72.47;101866.22;5045978;28;20025;-63
2022/04/11 00:16:23;;;;;;;16.50;12.80;;;;;;;4.74;72.84;101871.00;5043983;28;20044;-60
2022/04/11 00:18:49;;;;;;;14.95;11.90;;;;;;;4.68;73.31;101870.66;5027345;28;20048;-60
2022/04/11 00:21:14;;;;;;;14.40;11.50;;;;;;;4.67;74.43;101854.50;5043967;28;20049;-60
2022/04/11 00:23:39;;;;;;;17.75;12.70;;;;;;;4.65;73.09;101867.41;5045574;28;20359;-61
2022/04/11 00:26:04;;;;;;;18.20;12.95;;;;;;;4.69;72.77;101863.34;5042471;28;20048;-60
2022/04/11 00:28:29;;;;;;;17.40;12.57;;;;;;;4.69;74.17;101860.63;5031813;28;20029;-60
2022/04/11 00:30:55;;;;;;;16.75;13.45;;;;;;;4.71;74.24;101855.84;5045799;28;20032;-60
2022/04/11 00:33:20;;;;;;;16.45;14.05;;;;;;;4.69;73.47;101849.72;5044928;28;20385;-60
2022/04/11 00:35:46;;;;;;;14.85;13.13;;;;;;;4.66;73.59;101848.22;5044103;28;20369;-60
2022/04/11 00:38:12;;;;;;;17.10;13.55;;;;;;;4.66;74.97;101841.91;5044419;28;20454;-60
2022/04/11 00:40:37;;;;;;;16.48;14.18;;;;;;;4.68;74.99;101839.88;5043608;28;20101;-60
2022/04/11 00:43:02;;;;;;;16.80;14.40;;;;;;;4.67;73.58;101841.75;5044052;28;20028;-60
2022/04/11 00:45:28;;;;;;;16.95;14.10;;;;;;;4.67;73.91;101833.59;5044611;28;20093;-61
2022/04/11 00:47:53;;;;;;;17.27;14.30;;;;;;;4.68;72.64;101829.00;5044254;28;20029;-60
2022/04/11 00:50:18;;;;;;;18.35;15.18;;;;;;;4.69;73.49;101839.69;5044263;28;20036;-60
2022/04/11 00:52:48;;;;;;;16.23;14.20;;;;;;;4.67;73.59;101830.88;5044513;28;20025;-60
2022/04/11 00:55:14;;;;;;;17.35;14.27;;;;;;;4.65;72.47;101822.00;5042177;28;20480;-60
2022/04/11 00:57:40;;;;;;;18.08;14.98;;;;;;;4.67;72.50;101825.41;5044355;28;20036;-60
2022/04/11 01:00:08;;;;;;;15.80;14.10;;;;;;;4.65;72.34;101821.16;5044620;28;20037;-60
2022/04/11 01:02:33;;;;;;;16.55;14.45;;;;;;;4.65;72.65;101819.28;5043823;28;20029;-60
2022/04/11 01:04:59;;;;;;;18.10;15.23;;;;;;;4.65;71.36;101823.88;5044244;28;20036;-61
2022/04/11 01:07:24;;;;;;;18.92;15.75;;;;;;;4.66;71.57;101814.69;5043569;28;20123;-60
2022/04/11 01:09:50;;;;;;;19.92;15.40;;;;;;;4.67;73.07;101810.97;5043778;28;20013;-60
2022/04/11 01:12:16;;;;;;;19.98;15.73;;;;;;;4.66;72.49;101818.28;5043150;28;20029;-60
2022/04/11 01:14:42;;;;;;;19.63;16.00;;;;;;;4.64;71.93;101806.69;5044371;28;20149;-60
2022/04/11 01:17:08;;;;;;;18.73;16.13;;;;;;;4.64;70.95;101812.13;5044192;28;20036;-60
2022/04/11 01:19:34;;;;;;;20.70;16.48;;;;;;;4.64;71.59;101817.59;5043865;28;20035;-60
2022/04/11 01:21:59;;;;;;;18.30;16.38;;;;;;;4.66;70.66;101820.13;5043586;28;20231;-61
2022/04/11 01:24:25;;;;;;;19.83;16.75;;;;;;;4.68;70.47;101813.50;5042384;28;20116;-61
2022/04/11 01:26:50;;;;;;;18.83;16.80;;;;;;;4.67;70.62;101810.97;5044123;28;20045;-60
2022/04/11 01:29:18;;;;;;;19.23;16.75;;;;;;;4.67;72.39;101816.41;5043782;28;20017;-60
2022/04/11 01:31:43;;;;;;;18.55;16.55;;;;;;;4.69;71.47;101804.31;5043360;28;20919;-60
2022/04/11 01:34:09;;;;;;;21.35;16.17;;;;;;;4.62;71.64;101806.03;5044036;28;20032;-60
2022/04/11 01:36:34;;;;;;;18.50;16.35;;;;;;;4.62;72.58;101811.47;5043631;28;20497;-60
2022/04/11 01:38:59;;;;;;;20.70;17.45;;;;;;;4.60;73.68;101812.63;5043471;28;20025;-61
2022/04/11 01:41:25;;;;;;;20.88;16.75;;;;;;;4.58;72.14;101823.69;5042867;28;20448;-60
2022/04/11 01:43:50;;;;;;;19.70;17.70;;;;;;;4.56;72.20;101820.31;5043826;28;20033;-60
2022/04/11 01:46:15;;;;;;;19.92;17.85;;;;;;;4.53;72.86;101817.06;5043273;28;20075;-60
2022/04/11 01:48:41;;;;;;;19.50;17.40;;;;;;;4.49;74.05;101819.25;5043963;28;20121;-60
2022/04/11 01:51:06;;;;;;;19.92;17.80;;;;;;;4.46;74.06;101814.16;5042217;28;20387;-60
2022/04/11 01:53:31;;;;;;;20.05;17.98;;;;;;;4.47;74.62;101810.44;5043538;28;20111;-61
2022/04/11 01:55:57;;;;;;;20.45;18.15;;;;;;;4.46;75.27;101807.84;5042844;28;20048;-60
2022/04/11 01:58:22;;;;;;;19.85;17.75;;;;;;;4.43;75.87;101809.06;5043603;28;20032;-60
2022/04/11 02:00:47;;;;;;;20.13;18.02;;;;;;;4.39;75.75;101804.97;5043111;28;20084;-61
2022/04/11 02:03:13;;;;;;;20.70;17.80;;;;;;;4.35;74.63;101804.44;5042673;28;20044;-60
2022/04/11 02:05:39;;;;;;;21.42;19.23;;;;;;;4.33;75.00;101811.06;5042985;28;20028;-61
2022/04/11 02:08:07;;;;;;;20.30;18.08;;;;;;;4.28;75.54;101803.41;5043485;28;20020;-61
2022/04/11 02:10:35;;;;;;;19.37;17.47;;;;;;;4.28;75.81;101802.56;5042644;28;20026;-60
2022/04/11 02:13:01;;;;;;;19.90;17.80;;;;;;;4.25;76.07;101805.59;5041203;28;20025;-61
2022/04/11 02:15:26;;;;;;;22.05;18.25;;;;;;;4.22;75.01;101806.78;5042923;28;20399;-60
2022/04/11 02:17:52;;;;;;;21.45;18.63;;;;;;;4.20;74.83;101802.53;5043373;28;20037;-60
2022/04/11 02:20:18;;;;;;;21.08;18.95;;;;;;;4.14;75.53;101810.31;5042851;28;20400;-60
2022/04/11 02:22:47;;;;;;;20.23;18.10;;;;;;;4.15;76.30;101806.59;5041482;28;20404;-61
2022/04/11 02:25:13;;;;;;;20.63;18.45;;;;;;;4.12;76.18;101801.50;5041920;28;20033;-60
2022/04/11 02:27:38;;;;;;;21.42;19.20;;;;;;;4.11;75.69;101805.25;5043201;28;20040;-60
2022/04/11 02:30:05;;;;;;;20.38;18.20;;;;;;;4.07;74.15;101806.56;5042366;28;20033;-60
2022/04/11 02:32:31;;;;;;;21.13;18.35;;;;;;;4.04;75.19;101809.59;5041896;28;20115;-61
2022/04/11 02:34:56;;;;;;;22.60;18.08;;;;;;;4.01;74.84;101809.97;5043293;28;20021;-60
2022/04/11 02:37:21;;;;;;;22.45;19.20;;;;;;;3.98;75.29;101812.16;5042167;28;20344;-60
2022/04/11 02:39:46;;;;;;;20.35;18.33;;;;;;;3.95;76.27;101809.75;5040910;28;20033;-60
2022/04/11 02:42:23;;;;;;;21.20;18.58;;;;;;;3.90;77.26;101810.22;5042782;28;20051;-60
2022/04/11 02:44:49;;;;;;;21.05;18.85;;;;;;;3.81;76.86;101806.66;5042702;28;20036;-60
2022/04/11 02:47:14;;;;;;;21.50;18.38;;;;;;;3.80;77.20;101812.22;5042622;28;20123;-60
2022/04/11 02:49:39;;;;;;;21.58;18.40;;;;;;;3.75;75.78;101803.72;5042171;28;20159;-60
2022/04/11 02:52:05;;;;;;;21.63;19.33;;;;;;;3.72;76.61;101804.06;5041698;28;20029;-60
2022/04/11 02:54:30;;;;;;;21.98;19.38;;;;;;;3.71;77.12;101815.94;5041993;28;20036;-61
2022/04/11 02:56:55;;;;;;;19.90;17.73;;;;;;;3.68;77.31;101808.09;5042415;28;20037;-60
2022/04/11 02:59:20;;;;;;;22.13;18.90;;;;;;;3.67;77.27;101809.13;5041968;28;20137;-60
2022/04/11 03:01:46;;;;;;;21.25;19.05;;;;;;;3.63;77.03;101808.59;5042549;28;20037;-60
2022/04/11 03:04:11;;;;;;;21.35;19.25;;;;;;;3.58;77.33;101802.78;5041736;28;20044;-60
2022/04/11 03:06:36;;;;;;;22.65;18.70;;;;;;;3.50;77.35;101790.03;5042138;28;20041;-60
2022/04/11 03:09:02;;;;;;;22.23;19.65;;;;;;;3.46;78.81;101796.78;5042152;28;20506;-60
2022/04/11 03:11:27;;;;;;;20.88;18.65;;;;;;;3.43;78.61;101788.09;5042151;28;20025;-60
2022/04/11 03:13:52;;;;;;;23.33;19.42;;;;;;;3.38;78.60;101797.56;5042628;28;20021;-60
2022/04/11 03:16:17;;;;;;;20.55;18.52;;;;;;;3.37;78.67;101790.44;5042261;28;20630;-60
2022/04/11 03:18:42;;;;;;;23.23;19.25;;;;;;;3.32;78.34;101794.66;5040408;28;20101;-60
2022/04/11 03:21:08;;;;;;;22.65;19.85;;;;;;;3.29;77.67;101789.53;5041493;28;20032;-61
2022/04/11 03:23:33;;;;;;;22.45;19.10;;;;;;;3.28;77.21;101785.13;5042503;28;20523;-60
2022/04/11 03:25:58;;;;;;;21.48;18.95;;;;;;;3.26;76.53;101782.56;5041463;28;20024;-62
2022/04/11 03:28:23;;;;;;;21.45;19.25;;;;;;;3.21;77.42;101793.06;5024329;28;20029;-60
2022/04/11 03:30:49;;;;;;;24.65;19.23;;;;;;;3.15;78.08;101790.16;5041527;28;20033;-60
2022/04/11 03:33:14;;;;;;;25.40;19.23;;;;;;;3.12;78.26;101791.28;5042449;28;20074;-60
2022/04/11 03:35:39;;;;;;;20.80;18.25;;;;;;;3.09;78.53;101797.91;5034225;28;20076;-60
2022/04/11 03:38:05;;;;;;;21.27;18.48;;;;;;;3.06;78.46;101791.94;5031236;28;20025;-60
2022/04/11 03:40:30;;;;;;;20.83;18.60;;;;;;;3.02;78.41;101802.25;5041622;28;20033;-60
2022/04/11 03:42:55;;;;;;;21.73;19.17;;;;;;;3.00;78.44;101792.59;5044150;28;20029;-60
2022/04/11 03:45:20;;;;;;;21.85;18.35;;;;;;;2.96;78.71;101794.75;5045574;28;20115;-60
2022/04/11 03:47:46;;;;;;;21.63;19.42;;;;;;;2.92;79.11;101801.50;5044314;28;20040;-60
2022/04/11 03:50:11;;;;;;;21.15;18.92;;;;;;;2.84;79.09;101804.16;5045504;28;20029;-60
2022/04/11 03:52:36;;;;;;;21.70;19.40;;;;;;;2.78;79.10;101799.34;5045960;28;20021;-60
2022/04/11 03:55:04;;;;;;;21.25;18.67;;;;;;;2.71;79.50;101806.41;5044913;28;20036;-61
2022/04/11 03:57:29;;;;;;;20.77;18.58;;;;;;;2.69;79.14;101795.72;5044016;28;20032;-60
2022/04/11 03:59:55;;;;;;;23.58;19.73;;;;;;;2.67;79.33;101807.72;5045988;28;20045;-60
2022/04/11 04:02:20;;;;;;;22.17;19.83;;;;;;;2.66;80.00;101803.31;5045619;28;20036;-60
2022/04/11 04:04:45;;;;;;;21.80;19.60;;;;;;;2.64;79.88;101795.34;5026786;28;20439;-60
2022/04/11 04:07:12;;;;;;;21.00;18.48;;;;;;;2.62;80.12;101800.03;5045165;28;20049;-60
2022/04/11 04:09:38;;;;;;;22.65;20.15;;;;;;;2.58;80.72;101794.06;5042153;28;20684;-61
2022/04/11 04:12:03;;;;;;;22.20;19.35;;;;;;;2.54;81.62;101798.13;5045200;28;20056;-61
2022/04/11 04:14:29;;;;;;;22.25;19.50;;;;;;;2.50;81.04;101798.59;5040412;28;20123;-61
2022/04/11 04:16:54;;;;;;;22.05;19.58;;;;;;;2.48;80.60;101795.16;5043361;28;20029;-60
2022/04/11 04:19:19;;;;;;;21.75;19.15;;;;;;;2.48;80.43;101798.72;5043366;28;20103;-60
2022/04/11 04:21:45;;;;;;;21.88;19.58;;;;;;;2.46;80.99;101791.75;5042818;28;20042;-60
2022/04/11 04:24:10;;;;;;;21.70;19.40;;;;;;;2.45;81.28;101790.06;5042867;28;20921;-60
2022/04/11 04:26:35;;;;;;;21.90;19.00;;;;;;;2.44;81.21;101780.22;5044298;28;20159;-61
2022/04/11 04:29:00;;;;;;;21.98;18.35;;;;;;;2.42;81.49;101780.34;5044314;28;20029;-61
2022/04/11 04:31:26;;;;;;;23.48;19.35;;;;;;;2.43;81.18;101783.91;5044587;28;20392;-61
2022/04/11 04:33:51;;;;;;;22.48;19.15;;;;;;;2.39;81.08;101783.41;5044737;28;20032;-61
2022/04/11 04:36:16;;;;;;;21.45;18.98;;;;;;;2.41;81.17;101778.66;5043708;28;20040;-61
2022/04/11 04:38:41;;;;;;;21.58;18.20;;;;;;;2.40;80.87;101773.41;5044495;28;20430;-61
2022/04/11 04:41:07;;;;;;;22.17;18.67;;;;;;;2.37;81.37;101777.25;5043145;28;20029;-61
2022/04/11 04:43:32;;;;;;;27.05;20.33;;;;;;;2.38;81.73;101778.97;5044427;28;20029;-61
2022/04/11 04:45:57;;;;;;;23.30;19.58;;;;;;;2.37;81.37;101779.13;5044144;28;20151;-60
2022/04/11 04:48:22;;;;;;;21.20;18.60;;;;;;;2.36;81.43;101780.13;5041596;28;20051;-60
2022/04/11 04:50:48;;;;;;;23.48;19.08;;;;;;;2.34;81.68;101786.56;5041232;28;20024;-61
2022/04/11 04:53:13;;;;;;;21.95;18.10;;;;;;;2.35;81.98;101782.00;5042280;28;20075;-61
2022/04/11 04:55:38;;;;;;;20.48;18.27;;;;;;;2.30;81.57;101773.47;5041240;28;20032;-60
2022/04/11 04:58:04;;;;;;;22.15;18.88;;;;;;;2.30;81.83;101778.91;5041788;28;20079;-61
2022/04/11 05:00:30;;;;;;;24.42;18.83;;;;;;;2.29;81.66;101775.34;5041693;28;20041;-61
2022/04/11 05:02:55;;;;;;;22.05;18.20;;;;;;;2.30;81.79;101776.19;5042205;28;20037;-60
2022/04/11 05:05:20;;;;;;;21.17;18.48;;;;;;;2.29;81.59;101774.50;5041466;28;20292;-60
2022/04/11 05:07:45;;;;;;;22.10;18.60;;;;;;;2.29;81.83;101780.75;5043327;28;20029;-60
2022/04/11 05:10:11;;;;;;;22.00;18.75;;;;;;;2.30;81.65;101768.91;5041571;28;20059;-61
2022/04/11 05:12:44;;;;;;;21.20;18.70;;;;;;;2.33;81.52;101774.03;5043206;28;20071;-60
2022/04/11 05:15:10;;;;;;;22.98;19.15;;;;;;;2.34;82.15;101764.88;5042470;28;20554;-60
2022/04/11 05:17:35;;;;;;;23.92;19.02;;;;;;;2.38;81.84;101765.41;5043326;28;20480;-61
2022/04/11 05:20:02;;;;;;;22.13;18.55;;;;;;;2.42;82.07;101769.50;5042630;28;20431;-61
2022/04/11 05:22:27;;;;;;;23.45;19.60;;;;;;;2.45;82.16;101766.50;5042633;28;20037;-61
2022/04/11 05:24:53;;;;;;;24.00;19.77;;;;;;;2.46;81.43;101773.63;5041219;28;20480;-61
2022/04/11 05:27:18;;;;;;;21.95;18.88;;;;;;;2.49;81.34;101767.91;5042300;28;20040;-60
2022/04/11 05:29:43;;;;;;;22.27;18.35;;;;;;;2.51;80.75;101765.88;5043527;28;20028;-61
2022/04/11 05:32:08;;;;;;;22.13;18.17;;;;;;;2.56;81.30;101770.84;5042456;28;20355;-61
2022/04/11 05:34:34;;;;;;;23.13;18.13;;;;;;;2.59;80.40;101765.13;5024684;28;20036;-61
2022/04/11 05:36:59;;;;;;;23.27;18.95;;;;;;;2.68;80.69;101768.72;5042280;28;20013;-62
2022/04/11 05:39:24;;;;;;;21.73;17.77;;;;;;;2.77;80.87;101774.06;5041603;28;20031;-60
2022/04/11 05:41:50;;;;;;;21.17;18.23;;;;;;;2.84;80.18;101771.59;5042657;28;20013;-61
2022/04/11 05:44:16;;;;;;;20.50;18.02;;;;;;;2.93;79.50;101767.91;5042349;28;20025;-61
2022/04/11 05:46:41;;;;;;;21.55;18.08;;;;;;;3.01;79.46;101764.44;5042598;28;20215;-60
2022/04/11 05:49:06;;;;;;;21.55;18.30;;;;;;;3.07;79.61;101767.34;5041855;28;20035;-60
2022/04/11 05:51:32;;;;;;;21.08;18.77;;;;;;;3.19;79.39;101764.34;5041868;28;20549;-61
2022/04/11 05:53:57;;;;;;;19.20;17.17;;;;;;;3.26;77.63;101760.00;5041889;28;20041;-61
2022/04/11 05:56:22;;;;;;;21.17;17.92;;;;;;;3.36;78.16;101766.19;5042086;28;20028;-61
2022/04/11 05:58:47;;;;;;;21.73;17.60;;;;;;;3.44;77.36;101758.06;5042046;28;20510;-60
2022/04/11 06:01:13;;;;;;;21.98;17.40;;;;;;;3.56;76.79;101773.06;5041827;28;20037;-61
2022/04/11 06:03:38;;;;;;;21.65;17.50;;;;;;;3.68;75.58;101760.06;5041854;28;20450;-61
2022/04/11 06:06:05;;;;;;;22.70;16.88;;;;;;;3.79;75.72;101762.47;5040267;28;20017;-61
2022/04/11 06:08:30;;;;;;;19.95;16.67;;;;;;;3.90;75.19;101756.75;5042150;28;20025;-61
2022/04/11 06:10:55;;;;;;;19.48;16.85;;;;;;;4.00;76.23;101764.75;5041451;28;20036;-61
2022/04/11 06:13:20;;;;;;;21.13;16.88;;;;;;;4.11;75.37;101756.31;5042086;28;20024;-61
2022/04/11 06:15:46;;;;;;;19.15;16.80;;;;;;;4.24;75.06;101757.69;5041447;28;20055;-61
2022/04/11 06:18:11;;;;;;;19.52;17.05;;;;;;;4.40;74.74;101755.81;5041513;28;20037;-61
2022/04/11 06:20:36;;;;;;;20.77;17.10;;;;;;;4.60;73.72;101758.22;5041843;28;20025;-61
2022/04/11 06:23:03;;;;;;;19.58;15.52;;;;;;;4.79;73.00;101765.22;5041270;28;20021;-61
2022/04/11 06:25:28;;;;;;;17.77;15.65;;;;;;;4.93;72.73;101757.22;5040272;28;20115;-62
2022/04/11 06:27:53;;;;;;;18.45;16.45;;;;;;;5.07;71.00;101754.78;5042603;28;20035;-61
2022/04/11 06:30:18;;;;;;;19.77;16.30;;;;;;;5.19;70.61;101758.88;5041441;28;20512;-61
2022/04/11 06:32:44;;;;;;;17.90;15.70;;;;;;;5.34;69.90;101757.16;5041277;28;20052;-61
2022/04/11 06:35:10;;;;;;;17.60;15.68;;;;;;;5.55;70.96;101753.84;5041697;28;20036;-61
2022/04/11 06:37:35;;;;;;;18.77;15.15;;;;;;;5.76;68.62;101746.94;5041497;28;20309;-61
2022/04/11 06:40:02;;;;;;;18.67;14.38;;;;;;;6.04;67.97;101745.50;5040447;28;20060;-61
2022/04/11 06:42:27;;;;;;;17.13;14.88;;;;;;;6.56;65.44;101749.41;5039315;28;20379;-62
2022/04/11 06:44:53;;;;;;;17.23;14.30;;;;;;;6.89;64.89;101750.81;5040393;28;20036;-61
2022/04/11 06:47:21;;;;;;;16.13;14.05;;;;;;;6.91;63.74;101753.38;5042834;28;20067;-61
2022/04/11 06:49:46;;;;;;;16.17;14.27;;;;;;;6.95;64.33;101752.84;5042015;28;20100;-61
2022/04/11 06:52:12;;;;;;;18.15;13.77;;;;;;;7.31;62.85;101749.41;5040428;28;20128;-61
2022/04/11 06:54:37;;;;;;;17.80;13.23;;;;;;;7.92;61.39;101751.94;5041407;28;20428;-61
2022/04/11 06:57:02;;;;;;;16.25;12.95;;;;;;;8.06;60.79;101754.63;5040782;28;20021;-61
2022/04/11 06:59:28;;;;;;;15.20;13.15;;;;;;;8.17;60.09;101756.03;5042282;28;20033;-61
2022/04/11 07:01:53;;;;;;;15.75;12.18;;;;;;;8.65;59.55;101753.59;5041207;28;20459;-62
2022/04/11 07:04:19;;;;;;;18.08;12.38;;;;;;;8.93;57.85;101759.16;5041404;28;20175;-61
2022/04/11 07:06:45;;;;;;;16.92;12.40;;;;;;;8.94;57.60;101758.09;5023426;28;20119;-61
2022/04/11 07:09:10;;;;;;;17.05;12.68;;;;;;;9.03;57.93;101767.03;5040149;28;20119;-61
2022/04/11 07:11:35;;;;;;;15.90;12.68;;;;;;;9.18;57.41;101759.56;5037170;28;20056;-62
2022/04/11 07:14:01;;;;;;;14.90;12.27;;;;;;;9.90;55.67;101752.81;5044160;28;20104;-61
2022/04/11 07:16:26;;;;;;;16.08;11.88;;;;;;;9.95;53.32;101755.81;5042004;28;20048;-61
2022/04/11 07:18:51;;;;;;;16.58;11.68;;;;;;;10.22;53.79;101745.75;5039730;28;20379;-62
2022/04/11 07:21:17;;;;;;;15.20;11.35;;;;;;;10.70;52.26;101750.34;5040024;28;20040;-61
2022/04/11 07:23:42;;;;;;;16.08;11.13;;;;;;;11.43;51.14;101738.25;5043356;28;20033;-61
2022/04/11 07:26:08;;;;;;;15.10;11.38;;;;;;;12.28;50.13;101740.09;5042665;28;20028;-62
2022/04/11 07:28:33;;;;;;;13.68;11.30;;;;;;;13.29;46.81;101730.91;5045794;28;20037;-61
2022/04/11 07:30:59;;;;;;;13.95;10.77;;;;;;;13.69;46.31;101731.31;5041490;28;20047;-62
2022/04/11 07:33:24;;;;;;;14.18;10.82;;;;;;;14.13;44.64;101732.03;5044438;28;20059;-62
2022/04/11 07:35:49;;;;;;;13.68;10.95;;;;;;;14.94;44.99;101733.41;5046663;28;20029;-61
2022/04/11 07:38:15;;;;;;;12.35;10.60;;;;;;;14.99;44.43;101741.84;5046037;28;20029;-61
2022/04/11 07:40:40;;;;;;;13.95;11.77;;;;;;;14.93;42.75;101731.72;5044226;28;20025;-61
2022/04/11 07:43:05;;;;;;;14.23;11.35;;;;;;;14.61;42.82;101733.94;5045961;28;20174;-62
2022/04/11 07:45:30;;;;;;;15.18;12.05;;;;;;;14.32;44.83;101730.91;5028396;28;20052;-62
2022/04/11 07:47:56;;;;;;;16.30;12.68;;;;;;;14.84;44.06;101725.69;5042188;28;20033;-61
2022/04/11 07:50:21;;;;;;;14.90;10.73;;;;;;;15.04;42.18;101723.44;5043470;28;20603;-61
2022/04/11 07:52:46;;;;;;;15.95;12.80;;;;;;;15.26;42.18;101720.94;5047141;28;20031;-62
2022/04/11 07:55:15;;;;;;;15.07;11.50;;;;;;;15.69;41.37;101725.25;5040317;28;20023;-62
2022/04/11 07:57:41;;;;;;;14.68;12.30;;;;;;;14.95;42.08;101721.25;5045689;28;20032;-62
2022/04/11 08:00:07;;;;;;;15.80;11.27;;;;;;;14.69;42.85;101717.84;5043598;28;20041;-62
2022/04/11 08:02:33;;;;;;;14.23;11.15;;;;;;;14.51;43.85;101715.16;5042477;28;20372;-61
2022/04/11 08:05:03;;;;;;;13.73;11.43;;;;;;;14.48;44.42;101718.41;5045312;28;20036;-63
2022/04/11 08:07:37;;;;;;;16.85;12.82;;;;;;;14.44;43.53;101717.97;5045309;28;20111;-62
2022/04/11 08:10:05;;;;;;;19.08;12.48;;;;;;;14.05;45.72;101711.13;5043019;28;20040;-62
2022/04/11 08:12:30;;;;;;;16.17;14.10;;;;;;;13.99;45.97;101712.03;5045181;28;20056;-62
2022/04/11 08:14:56;;;;;;;19.23;13.48;;;;;;;13.88;46.33;101710.03;5045025;28;20033;-61
2022/04/11 08:17:21;;;;;;;18.63;12.73;;;;;;;13.72;47.45;101697.72;5044704;28;20025;-62
2022/04/11 08:19:46;;;;;;;15.95;12.38;;;;;;;13.58;46.92;101701.69;5044784;28;20025;-61
2022/04/11 08:22:12;;;;;;;16.65;12.18;;;;;;;13.83;46.79;101687.81;5024298;28;20037;-61
2022/04/11 08:24:37;;;;;;;15.60;11.18;;;;;;;14.47;44.36;101697.34;5036917;28;20073;-62
2022/04/11 08:27:03;;;;;;;16.98;11.35;;;;;;;14.67;42.38;101686.84;5035147;28;20181;-61
2022/04/11 08:29:28;;;;;;;16.75;11.40;;;;;;;15.25;42.31;101690.72;5040949;28;20033;-62
2022/04/11 08:31:53;;;;;;;17.20;11.57;;;;;;;15.57;43.15;101692.03;5041373;28;20474;-62
2022/04/11 08:34:19;;;;;;;16.65;11.60;;;;;;;16.05;41.78;101688.06;5044249;28;20037;-61
2022/04/11 08:36:44;;;;;;;16.08;11.05;;;;;;;16.05;38.50;101690.81;5044902;28;20029;-62
2022/04/11 08:39:11;;;;;;;15.57;11.18;;;;;;;16.12;40.56;101689.84;5043782;28;20029;-61
2022/04/11 08:41:36;;;;;;;15.95;10.60;;;;;;;16.40;39.18;101691.78;5043187;28;20032;-62
2022/04/11 08:44:06;;;;;;;15.50;11.40;;;;;;;16.65;40.41;101683.91;5044830;28;20486;-62
2022/04/11 08:46:34;;;;;;;15.43;10.18;;;;;;;17.00;38.03;101691.19;5045623;28;20107;-62
2022/04/11 08:49:00;;;;;;;13.80;10.35;;;;;;;17.80;35.77;101684.31;5045252;28;20086;-62
2022/04/11 08:51:26;;;;;;;13.90;10.38;;;;;;;18.72;35.95;101682.53;5040607;28;20033;-61
2022/04/11 08:53:52;;;;;;;14.43;9.80;;;;;;;19.35;34.05;101684.38;5023161;28;20534;-61
2022/04/11 08:56:17;;;;;;;12.35;9.38;;;;;;;20.21;33.67;101672.81;5041644;28;20033;-61
2022/04/11 08:58:42;;;;;;;16.63;9.65;;;;;;;20.66;31.25;101668.44;5032511;28;20025;-61
2022/04/11 09:01:07;;;;;;;13.95;9.75;;;;;;;20.52;31.11;101677.63;5043234;28;20167;-62
2022/04/11 09:03:33;;;;;;;14.77;8.90;;;;;;;20.87;31.04;101679.63;5039405;28;20052;-62
2022/04/11 09:06:06;;;;;;;12.27;8.48;;;;;;;21.36;30.74;101671.50;5037536;28;20853;-65
2022/04/11 09:08:58;;;;;;;14.07;9.10;;;;;;;21.76;30.78;101678.91;5040909;28;20029;-61
2022/04/11 09:11:34;;;;;;;12.30;9.10;;;;;;;22.50;29.19;101685.50;5043518;28;20025;-61
2022/04/11 09:14:02;;;;;;;13.85;8.40;;;;;;;22.79;27.25;101676.34;5043429;28;20028;-61
2022/04/11 09:16:41;;;;;;;13.57;8.30;;;;;;;23.21;26.71;101688.88;5042362;28;20024;-60
2022/04/11 09:19:06;;;;;;;15.15;8.43;;;;;;;23.77;25.75;101675.13;5043097;28;20117;-60
2022/04/11 09:21:44;;;;;;;12.50;8.07;;;;;;;23.30;26.14;101667.47;5025465;28;20112;-60
2022/04/11 09:24:17;;;;;;;14.50;8.77;;;;;;;23.35;27.72;101673.03;5041247;28;20032;-60
2022/04/11 09:26:42;;;;;;;14.50;8.85;;;;;;;23.49;25.38;101670.38;5042783;28;20033;-60
2022/04/11 09:29:08;;;;;;;15.20;8.82;;;;;;;23.92;25.18;101662.00;5042761;28;20031;-60
2022/04/11 09:31:34;;;;;;;13.00;9.07;;;;;;;23.95;24.98;101655.81;5041958;28;20040;-61
2022/04/11 09:34:22;;;;;;;15.55;9.20;;;;;;;24.20;26.27;101647.03;5042996;28;20476;-61
2022/04/11 09:36:51;;;;;;;16.05;8.32;;;;;;;24.48;24.71;101635.94;5024572;28;20056;-60
2022/04/11 09:39:28;;;;;;;13.10;8.20;;;;;;;24.03;25.25;101641.09;5042757;28;20056;-60
2022/04/11 09:41:54;;;;;;;16.58;8.93;;;;;;;23.63;23.87;101636.84;5044170;28;20065;-62
2022/04/11 09:44:27;;;;;;;13.95;9.05;;;;;;;23.72;24.18;101637.84;5040802;28;20161;-61
2022/04/11 09:47:04;;;;;;;14.55;8.63;;;;;;;24.08;25.76;101643.84;5043741;28;20025;-62
2022/04/11 09:49:32;;;;;;;15.43;8.45;;;;;;;24.17;23.77;101629.94;5040100;28;20048;-62
2022/04/11 09:52:13;;;;;;;14.48;8.35;;;;;;;24.59;24.68;101631.84;5041396;28;20025;-62
2022/04/11 09:54:42;;;;;;;14.60;8.98;;;;;;;24.46;23.57;101627.84;5034139;28;20043;-63
2022/04/11 09:57:08;;;;;;;16.10;9.70;;;;;;;24.60;23.00;101627.91;5038691;28;20029;-62
2022/04/11 09:59:37;;;;;;;14.07;9.00;;;;;;;24.49;24.02;101626.41;5037483;28;20045;-61
2022/04/11 10:02:03;;;;;;;14.20;9.93;;;;;;;24.65;23.38;101621.38;5041674;28;20269;-62
2022/04/11 10:04:29;;;;;;;14.23;9.15;;;;;;;24.38;23.58;101611.69;5042137;28;20060;-63
2022/04/11 10:06:55;;;;;;;14.15;8.93;;;;;;;24.52;23.07;101617.34;5040542;28;20032;-62
2022/04/11 10:09:23;;;;;;;11.20;8.27;;;;;;;23.42;22.81;101609.06;5038945;28;20029;-62
2022/04/11 10:11:50;;;;;;;14.52;7.20;;;;;;;23.35;23.89;101614.16;5042362;28;20040;-62
2022/04/11 10:14:28;;;;;;;15.33;8.43;;;;;;;23.03;23.24;101610.03;5043304;28;20047;-62
2022/04/11 10:16:55;;;;;;;;;;;;;;;23.01;24.68;101609.50;5043350;28;20035;-62
2022/04/11 10:19:33;;;;;;;14.93;7.63;;;;;;;22.62;25.04;101617.13;5040343;28;20371;-62
2022/04/11 10:22:11;;;;;;;14.13;7.50;;;;;;;23.16;24.79;101611.28;5041778;28;20506;-62
2022/04/11 10:25:01;;;;;;;12.30;7.60;;;;;;;23.39;24.92;101611.59;5041925;28;20116;-62
2022/04/11 10:27:26;;;;;;;13.25;7.60;;;;;;;23.83;24.42;101604.91;5041787;28;20033;-62
2022/04/11 10:29:53;;;;;;;14.65;8.05;;;;;;;23.92;23.31;101606.72;5042574;28;20029;-62
2022/04/11 10:32:21;;;;;;;13.95;8.05;;;;;;;23.90;22.83;101602.56;5041230;28;20074;-63
2022/04/11 10:34:55;;;;;;;14.18;7.70;;;;;;;23.81;22.80;101600.41;5040680;28;20516;-62
2022/04/11 10:37:28;;;;;;;12.95;7.60;;;;;;;23.01;24.31;101603.03;5041100;28;20033;-62
2022/04/11 10:40:16;;;;;;;11.35;7.43;;;;;;;22.33;25.26;101600.28;5042297;28;20032;-62
2022/04/11 10:43:02;;;;;;;13.45;7.72;;;;;;;22.52;24.89;101599.28;5030372;28;20040;-62
2022/04/11 10:45:33;;;;;;;12.80;7.18;;;;;;;22.43;23.83;101597.41;5028519;28;20057;-62
2022/04/11 10:47:58;;;;;;;15.05;7.65;;;;;;;22.50;23.00;101595.09;5042349;28;20491;-64
2022/04/11 10:50:26;;;;;;;10.90;6.47;;;;;;;22.67;23.97;101603.09;5042765;28;20037;-62
2022/04/11 10:52:54;;;;;;;11.38;7.20;;;;;;;22.83;26.68;101589.78;5040565;28;20082;-62
2022/04/11 10:55:25;;;;;;;11.45;7.13;;;;;;;22.71;23.82;101584.56;5040750;28;20030;-62
2022/04/11 10:57:56;;;;;;;11.50;6.55;;;;;;;22.97;23.74;101579.56;5042781;28;20399;-62
2022/04/11 11:00:26;;;;;;;11.98;6.82;;;;;;;23.39;23.94;101566.75;5041474;28;20048;-62
2022/04/11 11:02:59;;;;;;;15.85;7.10;;;;;;;23.49;22.52;101569.44;5042290;28;20052;-63
2022/04/11 11:05:40;;;;;;;11.98;6.72;;;;;;;23.44;24.44;101567.53;5042117;28;20459;-63
2022/04/11 11:08:11;;;;;;;11.52;6.20;;;;;;;23.63;25.85;101564.78;5041519;28;20032;-63
2022/04/11 11:11:02;;;;;;;11.32;6.60;;;;;;;23.68;24.67;101556.31;5040410;28;20033;-62
2022/04/11 11:13:40;;;;;;;11.32;6.93;;;;;;;23.06;24.36;101552.56;5042344;28;20033;-62
2022/04/11 11:16:11;;;;;;;12.20;5.95;;;;;;;23.36;25.26;101550.53;5042144;28;20029;-63